Time;durP1;ratioP1;P1;durP2;ratioP2;P2;SDS_P1;SDS_P2;PMS_P1;PMS_P2;Temp;Humidity;BMP_temperature;BMP_pressure;BME280_temperature;BME280_humidity;BME280_pressure;Samples;Min_cycle;Max_cycle;Signal;HPM_P1;HPM_P2
2024/02/03 00:01:56;;;;;;;2.10;1.90;;;6.90;99.90;;;;;;4978020;28;20984;-68
2024/02/03 00:04:22;;;;;;;2.20;2.00;;;6.90;99.90;;;;;;4995466;28;20196;-69
2024/02/03 00:06:47;;;;;;;2.00;1.80;;;6.90;99.90;;;;;;4997627;28;20201;-69
2024/02/03 00:09:13;;;;;;;2.13;1.90;;;6.90;99.90;;;;;;4998035;28;20334;-69
2024/02/03 00:11:39;;;;;;;3.17;2.00;;;6.80;99.90;;;;;;4997801;28;20719;-69
2024/02/03 00:14:07;;;;;;;1.67;1.50;;;6.80;99.90;;;;;;4997377;28;20216;-67
2024/02/03 00:16:33;;;;;;;2.07;1.87;;;6.80;99.90;;;;;;4995663;28;20174;-66
2024/02/03 00:18:58;;;;;;;2.23;2.00;;;6.70;99.90;;;;;;4996816;28;20460;-67
2024/02/03 00:21:24;;;;;;;3.40;2.43;;;6.70;99.90;;;;;;4996929;28;20167;-67
2024/02/03 00:23:50;;;;;;;3.27;1.90;;;6.60;99.90;;;;;;4997052;28;20232;-67
2024/02/03 00:26:16;;;;;;;2.27;1.93;;;6.40;99.90;;;;;;4980147;28;20206;-69
2024/02/03 00:28:41;;;;;;;2.03;1.70;;;6.50;99.90;;;;;;4978604;28;20673;-69
2024/02/03 00:31:08;;;;;;;2.10;1.57;;;6.50;99.90;;;;;;4976794;28;20175;-69
2024/02/03 00:33:33;;;;;;;3.57;1.80;;;6.50;99.90;;;;;;4978153;28;20190;-69
2024/02/03 00:35:59;;;;;;;2.10;1.60;;;6.50;99.90;;;;;;4992364;28;20512;-69
2024/02/03 00:38:25;;;;;;;2.30;1.87;;;6.50;99.90;;;;;;4998112;28;20172;-69
2024/02/03 00:40:51;;;;;;;1.53;1.30;;;6.70;99.90;;;;;;4997453;28;20190;-69
2024/02/03 00:43:16;;;;;;;3.77;1.57;;;6.80;99.90;;;;;;4996365;28;20229;-68
2024/02/03 00:45:45;;;;;;;2.40;1.73;;;6.80;99.90;;;;;;4985699;28;20813;-69
2024/02/03 00:48:11;;;;;;;2.40;1.60;;;6.80;99.90;;;;;;4978347;28;20175;-69
2024/02/03 00:50:36;;;;;;;1.90;1.57;;;6.70;99.90;;;;;;4977025;28;20826;-68
2024/02/03 00:53:02;;;;;;;2.53;1.40;;;6.80;99.90;;;;;;4978131;28;20754;-69
2024/02/03 00:55:28;;;;;;;1.60;1.40;;;6.80;99.90;;;;;;4987784;28;20559;-69
2024/02/03 00:57:54;;;;;;;1.93;1.43;;;6.80;99.90;;;;;;4997617;28;20406;-68
2024/02/03 01:00:23;;;;;;;1.90;1.60;;;6.60;99.90;;;;;;4997070;28;20429;-69
2024/02/03 01:02:49;;;;;;;1.73;1.33;;;6.50;99.90;;;;;;4996957;28;20249;-69
2024/02/03 01:05:15;;;;;;;2.20;1.80;;;6.40;99.90;;;;;;4988761;28;20431;-69
2024/02/03 01:07:41;;;;;;;1.40;1.30;;;6.30;99.90;;;;;;4977614;28;20415;-68
2024/02/03 01:10:07;;;;;;;1.70;1.40;;;6.30;99.90;;;;;;4977571;28;20403;-69
2024/02/03 01:12:32;;;;;;;1.50;1.27;;;6.40;99.90;;;;;;4977260;28;20175;-68
2024/02/03 01:14:58;;;;;;;1.93;1.27;;;6.40;99.90;;;;;;4981043;28;20476;-68
2024/02/03 01:17:24;;;;;;;1.70;1.60;;;6.50;99.90;;;;;;4996633;28;20626;-68
2024/02/03 01:19:50;;;;;;;2.40;1.30;;;6.60;99.90;;;;;;4996624;28;20175;-69
2024/02/03 01:22:16;;;;;;;1.50;1.30;;;6.70;99.90;;;;;;4996043;28;20178;-68
2024/02/03 01:24:41;;;;;;;2.23;1.87;;;6.80;99.90;;;;;;4993374;28;21096;-69
2024/02/03 01:27:07;;;;;;;1.63;1.47;;;6.60;99.90;;;;;;4976763;28;20174;-68
2024/02/03 01:29:33;;;;;;;2.30;1.90;;;6.50;99.90;;;;;;4976990;28;20180;-68
2024/02/03 01:31:59;;;;;;;2.10;1.40;;;6.60;99.90;;;;;;4979352;28;20209;-69
2024/02/03 01:34:24;;;;;;;2.10;1.90;;;6.50;99.90;;;;;;4976254;28;20489;-69
2024/02/03 01:36:50;;;;;;;1.83;1.60;;;6.40;99.90;;;;;;4976279;28;20174;-68
2024/02/03 01:39:16;;;;;;;1.63;1.30;;;6.50;99.90;;;;;;4975571;28;20199;-68
2024/02/03 01:41:41;;;;;;;2.40;1.33;;;6.50;99.90;;;;;;4977485;28;20172;-68
2024/02/03 01:44:07;;;;;;;1.87;1.67;;;6.40;99.90;;;;;;4976977;28;20183;-68
2024/02/03 01:46:34;;;;;;;1.40;1.20;;;6.40;99.90;;;;;;4994021;28;20228;-67
2024/02/03 01:49:00;;;;;;;1.80;1.47;;;6.30;99.90;;;;;;4995759;28;20171;-68
2024/02/03 01:51:27;;;;;;;1.70;1.33;;;6.30;99.90;;;;;;4995646;28;20411;-68
2024/02/03 01:53:54;;;;;;;2.13;1.60;;;6.20;99.90;;;;;;4995837;28;20193;-68
2024/02/03 01:56:20;;;;;;;2.13;1.80;;;6.10;99.90;;;;;;4979819;28;20416;-68
2024/02/03 01:58:47;;;;;;;1.27;1.17;;;6.10;99.90;;;;;;4975892;28;20406;-68
2024/02/03 02:01:14;;;;;;;1.30;1.20;;;6.00;99.90;;;;;;4976325;28;20401;-68
2024/02/03 02:03:40;;;;;;;2.27;1.40;;;6.00;99.90;;;;;;4993784;28;20444;-68
2024/02/03 02:06:07;;;;;;;2.70;1.50;;;6.10;99.90;;;;;;4981582;28;20429;-68
2024/02/03 02:08:35;;;;;;;1.70;1.60;;;6.10;99.90;;;;;;4974293;28;20410;-68
2024/02/03 02:11:02;;;;;;;1.33;1.17;;;5.90;99.90;;;;;;4981977;28;20415;-68
2024/02/03 02:13:28;;;;;;;2.80;1.70;;;5.90;99.90;;;;;;4995183;28;20499;-68
2024/02/03 02:15:54;;;;;;;2.27;1.70;;;6.00;99.90;;;;;;4983047;28;20436;-68
2024/02/03 02:18:20;;;;;;;1.43;1.33;;;6.10;99.90;;;;;;4974370;28;20823;-68
2024/02/03 02:20:45;;;;;;;2.13;1.57;;;5.90;99.90;;;;;;4975899;28;20405;-68
2024/02/03 02:23:11;;;;;;;2.00;1.80;;;5.90;99.90;;;;;;4975782;28;20174;-68
2024/02/03 02:25:37;;;;;;;1.67;1.57;;;5.90;99.90;;;;;;4984909;28;20214;-68
2024/02/03 02:28:03;;;;;;;1.73;1.63;;;5.90;99.90;;;;;;4996011;28;20166;-68
2024/02/03 02:30:29;;;;;;;1.50;1.37;;;5.90;99.90;;;;;;4995197;28;20168;-68
2024/02/03 02:32:54;;;;;;;2.33;1.50;;;6.10;99.90;;;;;;4995190;28;20416;-68
2024/02/03 02:35:20;;;;;;;1.80;1.50;;;6.10;99.90;;;;;;4994821;28;20195;-69
2024/02/03 02:37:46;;;;;;;2.13;1.50;;;6.00;99.90;;;;;;4994676;28;20176;-69
2024/02/03 02:40:12;;;;;;;1.80;1.40;;;6.00;99.90;;;;;;4994615;28;20543;-68
2024/02/03 02:42:38;;;;;;;2.07;1.30;;;6.00;99.90;;;;;;4993409;28;20173;-68
2024/02/03 02:45:04;;;;;;;2.00;1.40;;;6.00;99.90;;;;;;4989930;28;20431;-68
2024/02/03 02:47:30;;;;;;;1.57;1.47;;;5.90;99.90;;;;;;4975423;28;20228;-69
2024/02/03 02:49:56;;;;;;;2.63;1.90;;;5.90;99.90;;;;;;4975829;28;20409;-69
2024/02/03 02:52:22;;;;;;;2.67;2.37;;;5.90;99.90;;;;;;4975652;28;20415;-69
2024/02/03 02:54:47;;;;;;;1.67;1.37;;;5.90;99.90;;;;;;4977774;28;20764;-69
2024/02/03 02:57:13;;;;;;;1.60;1.50;;;5.90;99.90;;;;;;4994608;28;20181;-68
2024/02/03 02:59:40;;;;;;;1.77;1.43;;;6.00;99.90;;;;;;4994733;28;20649;-68
2024/02/03 03:02:06;;;;;;;1.97;1.53;;;5.90;99.90;;;;;;4994653;28;20225;-69
2024/02/03 03:04:31;;;;;;;1.80;1.50;;;6.00;99.90;;;;;;4993812;28;20904;-68
2024/02/03 03:06:57;;;;;;;3.40;2.07;;;6.00;99.90;;;;;;4974803;28;20244;-69
2024/02/03 03:09:23;;;;;;;1.80;1.50;;;6.00;99.90;;;;;;4975050;28;20175;-69
2024/02/03 03:11:48;;;;;;;3.40;2.30;;;6.00;99.90;;;;;;4974609;28;20166;-68
2024/02/03 03:14:14;;;;;;;2.30;2.07;;;5.90;99.90;;;;;;4974723;28;20205;-69
2024/02/03 03:16:40;;;;;;;4.10;1.67;;;5.90;99.90;;;;;;4990594;28;20640;-69
2024/02/03 03:19:06;;;;;;;1.60;1.50;;;5.90;99.90;;;;;;4994559;28;20205;-68
2024/02/03 03:21:31;;;;;;;2.60;1.80;;;5.80;99.90;;;;;;4995797;28;20400;-67
2024/02/03 03:23:57;;;;;;;1.50;1.40;;;5.80;99.90;;;;;;4995187;28;20644;-68
2024/02/03 03:26:23;;;;;;;1.83;1.47;;;5.70;99.90;;;;;;4983223;28;20188;-69
2024/02/03 03:28:48;;;;;;;2.20;1.70;;;5.80;99.90;;;;;;4979048;28;20229;-68
2024/02/03 03:31:14;;;;;;;1.50;1.30;;;5.70;99.90;;;;;;4978553;28;20667;-68
2024/02/03 03:33:40;;;;;;;1.53;1.33;;;5.80;99.90;;;;;;4978903;28;20275;-68
2024/02/03 03:36:05;;;;;;;1.60;1.50;;;5.70;99.90;;;;;;4991037;28;20598;-68
2024/02/03 03:38:31;;;;;;;1.57;1.47;;;5.70;99.90;;;;;;4998372;28;20169;-68
2024/02/03 03:40:57;;;;;;;2.93;1.83;;;5.70;99.90;;;;;;4998911;28;20164;-68
2024/02/03 03:43:23;;;;;;;1.90;1.43;;;5.60;99.90;;;;;;4997972;28;20173;-68
2024/02/03 03:45:48;;;;;;;1.40;1.30;;;5.50;99.90;;;;;;4987718;28;20192;-68
2024/02/03 03:48:14;;;;;;;1.67;1.23;;;5.50;99.90;;;;;;4978356;28;20176;-68
2024/02/03 03:50:40;;;;;;;1.57;1.40;;;5.50;99.90;;;;;;4978631;28;20193;-68
2024/02/03 03:53:05;;;;;;;1.73;1.63;;;5.50;99.90;;;;;;4978157;28;20793;-68
2024/02/03 03:55:31;;;;;;;1.43;1.33;;;5.50;99.90;;;;;;4985652;28;20184;-68
2024/02/03 03:57:57;;;;;;;2.40;1.47;;;5.50;99.90;;;;;;4998103;28;20165;-68
2024/02/03 04:00:22;;;;;;;1.80;1.70;;;5.50;99.90;;;;;;4998353;28;20166;-68
2024/02/03 04:02:48;;;;;;;2.10;1.90;;;5.50;99.90;;;;;;4997669;28;20246;-68
2024/02/03 04:05:14;;;;;;;2.90;1.47;;;5.50;99.90;;;;;;4992374;28;20203;-68
2024/02/03 04:07:39;;;;;;;1.47;1.37;;;5.60;99.90;;;;;;4978644;28;20258;-68
2024/02/03 04:10:05;;;;;;;1.43;1.33;;;5.70;99.90;;;;;;4978254;28;20178;-68
2024/02/03 04:12:31;;;;;;;3.57;1.63;;;5.70;99.90;;;;;;4979533;28;20253;-68
2024/02/03 04:14:57;;;;;;;1.80;1.60;;;5.70;99.90;;;;;;4980153;28;20563;-68
2024/02/03 04:17:22;;;;;;;1.67;1.43;;;5.60;99.90;;;;;;4997516;28;20223;-68
2024/02/03 04:19:48;;;;;;;1.73;1.30;;;5.50;99.90;;;;;;4997277;28;20196;-68
2024/02/03 04:22:13;;;;;;;2.30;1.60;;;5.40;99.90;;;;;;4997494;28;20215;-68
2024/02/03 04:24:40;;;;;;;1.77;1.37;;;5.30;99.90;;;;;;4998061;28;20204;-69
2024/02/03 04:27:06;;;;;;;1.70;1.60;;;5.30;99.90;;;;;;4997713;28;20169;-68
2024/02/03 04:29:31;;;;;;;1.67;1.50;;;5.30;99.90;;;;;;4995892;28;20422;-68
2024/02/03 04:31:57;;;;;;;1.70;1.60;;;5.30;99.90;;;;;;4997003;28;20821;-68
2024/02/03 04:34:23;;;;;;;1.70;1.30;;;5.30;99.90;;;;;;4996991;28;20213;-68
2024/02/03 04:36:48;;;;;;;1.90;1.70;;;5.40;99.90;;;;;;4996881;28;20177;-68
2024/02/03 04:39:14;;;;;;;1.43;1.33;;;5.30;99.90;;;;;;4997079;28;20168;-68
2024/02/03 04:41:40;;;;;;;1.80;1.50;;;5.20;99.90;;;;;;4997533;28;20691;-69
2024/02/03 04:44:06;;;;;;;1.70;1.57;;;5.30;99.90;;;;;;4997369;28;20609;-70
2024/02/03 04:46:31;;;;;;;1.80;1.53;;;5.30;99.90;;;;;;4981853;28;20189;-68
2024/02/03 04:48:57;;;;;;;1.53;1.40;;;5.40;99.90;;;;;;4977589;28;20158;-68
2024/02/03 04:51:23;;;;;;;1.90;1.57;;;5.20;99.90;;;;;;4977778;28;20176;-68
2024/02/03 04:53:49;;;;;;;1.60;1.50;;;5.20;99.90;;;;;;4977209;28;20455;-68
2024/02/03 04:56:14;;;;;;;1.70;1.60;;;5.20;99.90;;;;;;4989852;28;20273;-68
2024/02/03 04:58:40;;;;;;;1.50;1.40;;;5.20;99.90;;;;;;4996840;28;20161;-67
2024/02/03 05:01:06;;;;;;;2.30;1.60;;;5.10;99.90;;;;;;4997142;28;20670;-68
2024/02/03 05:03:32;;;;;;;2.00;1.70;;;5.10;99.90;;;;;;4996627;28;20174;-68
2024/02/03 05:06:04;;;;;;;1.80;1.70;;;5.00;99.90;;;;;;4986195;28;20197;-68
2024/02/03 05:08:30;;;;;;;1.90;1.70;;;5.00;99.90;;;;;;4977614;28;20970;-68
2024/02/03 05:10:56;;;;;;;1.80;1.70;;;5.10;99.90;;;;;;4977566;28;20942;-68
2024/02/03 05:13:22;;;;;;;2.33;1.87;;;5.10;99.90;;;;;;4976895;28;20475;-69
2024/02/03 05:15:48;;;;;;;1.93;1.73;;;5.10;99.90;;;;;;4982905;28;20463;-69
2024/02/03 05:18:13;;;;;;;1.80;1.70;;;5.10;99.90;;;;;;4995071;28;20173;-68
2024/02/03 05:20:39;;;;;;;2.30;2.00;;;5.10;99.90;;;;;;4997536;28;20226;-69
2024/02/03 05:23:05;;;;;;;2.60;2.17;;;5.10;99.90;;;;;;4996465;28;20176;-68
2024/02/03 05:25:30;;;;;;;2.73;2.00;;;5.10;99.90;;;;;;4988877;28;20205;-68
2024/02/03 05:27:56;;;;;;;2.97;2.67;;;4.90;99.90;;;;;;4977699;28;20174;-68
2024/02/03 05:30:21;;;;;;;2.90;2.30;;;5.00;99.90;;;;;;4977774;28;20566;-67
2024/02/03 05:32:47;;;;;;;2.60;2.40;;;5.00;99.90;;;;;;4977286;28;20217;-69
2024/02/03 05:35:13;;;;;;;2.67;2.33;;;4.80;99.90;;;;;;4980819;28;20196;-69
2024/02/03 05:37:38;;;;;;;2.40;2.20;;;4.90;99.90;;;;;;4996419;28;20200;-68
2024/02/03 05:40:04;;;;;;;2.90;2.60;;;4.90;99.90;;;;;;4996075;28;20169;-69
2024/02/03 05:42:30;;;;;;;3.70;2.90;;;5.00;99.90;;;;;;4996263;28;20175;-69
2024/02/03 05:44:59;;;;;;;3.00;2.80;;;5.10;99.90;;;;;;4994234;28;20432;-68
2024/02/03 05:47:25;;;;;;;3.30;2.83;;;5.10;99.90;;;;;;4976657;28;20196;-69
2024/02/03 05:49:51;;;;;;;4.00;3.37;;;5.10;99.90;;;;;;4976495;28;20633;-69
2024/02/03 05:52:17;;;;;;;3.80;3.40;;;5.10;99.90;;;;;;4976611;28;20409;-69
2024/02/03 05:54:42;;;;;;;4.60;3.73;;;5.10;99.90;;;;;;4974948;28;20464;-69
2024/02/03 05:57:14;;;;;;;4.70;4.30;;;5.00;99.90;;;;;;4994910;28;20264;-69
2024/02/03 05:59:44;;;;;;;5.97;5.47;;;4.90;99.90;;;;;;4994558;28;20184;-69
2024/02/03 06:02:10;;;;;;;4.37;3.97;;;4.90;99.90;;;;;;4995873;28;20416;-69
2024/02/03 06:04:35;;;;;;;6.90;4.20;;;4.90;99.90;;;;;;4981767;28;20518;-69
2024/02/03 06:07:02;;;;;;;5.63;4.90;;;4.90;99.90;;;;;;4994291;28;20411;-69
2024/02/03 06:09:27;;;;;;;5.97;4.30;;;4.90;99.90;;;;;;4995332;28;20600;-69
2024/02/03 06:11:53;;;;;;;4.87;4.20;;;5.00;99.90;;;;;;4995848;28;20415;-69
2024/02/03 06:14:18;;;;;;;5.67;4.60;;;5.00;99.90;;;;;;4995275;28;20208;-69
2024/02/03 06:16:44;;;;;;;4.73;4.33;;;5.00;99.90;;;;;;4979899;28;20177;-69
2024/02/03 06:19:10;;;;;;;5.97;5.07;;;5.10;99.90;;;;;;4976431;28;20225;-69
2024/02/03 06:21:35;;;;;;;5.00;4.50;;;5.10;99.90;;;;;;4976188;28;20633;-68
2024/02/03 06:24:01;;;;;;;6.23;4.70;;;5.10;99.90;;;;;;4983405;28;20181;-69
2024/02/03 06:26:30;;;;;;;5.80;5.20;;;5.10;99.90;;;;;;4995481;28;20548;-69
2024/02/03 06:28:56;;;;;;;5.70;5.20;;;5.10;99.90;;;;;;4993822;28;20403;-68
2024/02/03 06:31:22;;;;;;;5.60;4.70;;;5.10;99.90;;;;;;4995564;28;20408;-68
2024/02/03 06:33:48;;;;;;;6.07;5.03;;;5.00;99.90;;;;;;4995350;28;20463;-69
2024/02/03 06:36:14;;;;;;;5.80;5.20;;;5.10;99.90;;;;;;4995234;28;20223;-69
2024/02/03 06:38:39;;;;;;;9.30;5.53;;;4.90;99.90;;;;;;4995220;28;20173;-69
2024/02/03 06:41:05;;;;;;;6.27;5.50;;;4.90;99.90;;;;;;4995507;28;20800;-69
2024/02/03 06:43:31;;;;;;;5.50;5.00;;;4.90;99.90;;;;;;4994726;28;20177;-69
2024/02/03 06:45:56;;;;;;;6.10;5.50;;;5.00;99.90;;;;;;4986350;28;20221;-68
2024/02/03 06:48:22;;;;;;;7.73;6.30;;;5.10;99.90;;;;;;4975346;28;20169;-70
2024/02/03 06:50:49;;;;;;;9.87;6.63;;;5.10;99.90;;;;;;4975649;28;20644;-68
2024/02/03 06:53:15;;;;;;;6.67;6.00;;;5.00;99.90;;;;;;4975452;28;20177;-69
2024/02/03 06:55:41;;;;;;;6.13;5.50;;;4.90;99.90;;;;;;4981648;28;20486;-68
2024/02/03 06:58:06;;;;;;;9.50;6.43;;;4.90;99.90;;;;;;4995114;28;20431;-68
2024/02/03 07:00:32;;;;;;;8.00;6.70;;;5.10;99.90;;;;;;4995563;28;20168;-69
2024/02/03 07:02:57;;;;;;;8.27;7.50;;;5.00;99.90;;;;;;4994745;28;20200;-69
2024/02/03 07:05:23;;;;;;;6.43;5.83;;;5.00;99.90;;;;;;4989715;28;20191;-69
2024/02/03 07:07:49;;;;;;;6.23;5.27;;;4.90;99.90;;;;;;4975227;28;20181;-69
2024/02/03 07:10:14;;;;;;;6.73;5.67;;;4.90;99.90;;;;;;4975869;28;20621;-69
2024/02/03 07:12:40;;;;;;;6.80;5.23;;;5.00;99.90;;;;;;4977426;28;20599;-69
2024/02/03 07:15:06;;;;;;;5.90;5.30;;;5.10;99.90;;;;;;4976670;28;20783;-69
2024/02/03 07:17:32;;;;;;;7.93;6.40;;;5.10;99.90;;;;;;4994414;28;20170;-69
2024/02/03 07:19:57;;;;;;;8.13;6.27;;;5.20;99.90;;;;;;4994289;28;20411;-69
2024/02/03 07:22:23;;;;;;;7.33;6.60;;;5.10;99.90;;;;;;4994446;28;20710;-69
2024/02/03 07:24:48;;;;;;;7.40;6.70;;;5.10;99.90;;;;;;4994455;28;20236;-69
2024/02/03 07:27:14;;;;;;;8.63;7.33;;;5.10;99.90;;;;;;4980339;28;20181;-69
2024/02/03 07:29:41;;;;;;;7.43;6.70;;;5.20;99.90;;;;;;4978399;28;20501;-69
2024/02/03 07:32:07;;;;;;;8.07;7.07;;;5.00;99.90;;;;;;4974954;28;20256;-69
2024/02/03 07:34:32;;;;;;;7.30;6.60;;;5.00;99.90;;;;;;4975106;28;20540;-68
2024/02/03 07:36:58;;;;;;;7.90;7.10;;;5.00;99.90;;;;;;4990484;28;20461;-69
2024/02/03 07:39:23;;;;;;;7.10;6.40;;;5.00;99.90;;;;;;4994635;28;20700;-69
2024/02/03 07:41:49;;;;;;;7.73;6.40;;;5.10;99.90;;;;;;4994657;28;20182;-69
2024/02/03 07:44:14;;;;;;;7.63;6.67;;;5.10;99.90;;;;;;4994299;28;20196;-68
2024/02/03 07:46:40;;;;;;;7.80;6.70;;;5.20;99.90;;;;;;4980586;28;20538;-69
2024/02/03 07:49:06;;;;;;;7.57;6.87;;;5.40;99.90;;;;;;4975638;28;20579;-69
2024/02/03 07:51:32;;;;;;;7.20;6.50;;;5.50;99.90;;;;;;4974983;28;20493;-68
2024/02/03 07:53:58;;;;;;;6.90;6.20;;;5.60;99.90;;;;;;4975441;28;20201;-69
2024/02/03 07:56:24;;;;;;;7.33;6.47;;;5.80;99.90;;;;;;4985934;28;20560;-69
2024/02/03 07:58:51;;;;;;;8.00;7.20;;;6.00;99.90;;;;;;4993098;28;20173;-69
2024/02/03 08:01:20;;;;;;;7.77;6.30;;;6.20;99.90;;;;;;4992756;28;20237;-69
2024/02/03 08:03:47;;;;;;;6.97;6.27;;;6.40;99.90;;;;;;4994197;28;20408;-67
2024/02/03 08:06:13;;;;;;;7.67;6.87;;;6.60;99.90;;;;;;4984580;28;20918;-69
2024/02/03 08:08:38;;;;;;;6.97;6.30;;;6.80;99.90;;;;;;4978262;28;20419;-69
2024/02/03 08:11:05;;;;;;;7.90;7.13;;;7.10;99.90;;;;;;4985098;28;20181;-70
2024/02/03 08:13:30;;;;;;;6.63;5.93;;;7.30;99.90;;;;;;4997575;28;20213;-69
2024/02/03 08:15:56;;;;;;;8.27;6.17;;;7.40;99.90;;;;;;4988924;28;21003;-70
2024/02/03 08:18:22;;;;;;;9.53;6.43;;;7.50;99.90;;;;;;4984032;28;20256;-67
2024/02/03 08:20:50;;;;;;;10.27;9.37;;;7.60;99.90;;;;;;4997717;28;20203;-68
2024/02/03 08:23:16;;;;;;;7.30;6.60;;;7.50;99.90;;;;;;4997944;28;20168;-68
2024/02/03 08:25:42;;;;;;;7.27;6.47;;;7.80;99.90;;;;;;4997236;28;20941;-67
2024/02/03 08:28:08;;;;;;;7.20;6.10;;;8.00;99.90;;;;;;4997031;28;20168;-69
2024/02/03 08:30:33;;;;;;;7.07;6.37;;;8.30;99.90;;;;;;4997384;28;20228;-69
2024/02/03 08:32:59;;;;;;;6.70;6.10;;;8.40;99.90;;;;;;4997299;28;20478;-70
2024/02/03 08:35:25;;;;;;;7.57;6.40;;;8.60;99.90;;;;;;4995774;28;20208;-69
2024/02/03 08:37:51;;;;;;;8.20;6.20;;;8.70;99.90;;;;;;4997667;28;20190;-69
2024/02/03 08:40:20;;;;;;;6.13;5.37;;;8.80;99.90;;;;;;4997116;28;20400;-70
2024/02/03 08:42:46;;;;;;;6.43;5.40;;;8.90;99.90;;;;;;4997343;28;20164;-70
2024/02/03 08:45:11;;;;;;;6.70;5.77;;;9.00;99.90;;;;;;4996134;28;20443;-69
2024/02/03 08:47:37;;;;;;;6.83;6.13;;;9.10;99.90;;;;;;4978367;28;20409;-69
2024/02/03 08:50:04;;;;;;;6.50;5.90;;;9.30;99.90;;;;;;4977127;28;20174;-68
2024/02/03 08:52:30;;;;;;;7.03;6.40;;;9.30;99.90;;;;;;4975854;28;20178;-70
2024/02/03 08:54:56;;;;;;;6.77;6.10;;;9.30;99.90;;;;;;4977109;28;20864;-67
2024/02/03 08:57:21;;;;;;;6.77;5.97;;;9.40;99.90;;;;;;4995148;28;20639;-68
2024/02/03 08:59:50;;;;;;;7.00;6.30;;;9.50;99.90;;;;;;4997185;28;20462;-68
2024/02/03 09:02:16;;;;;;;7.20;6.50;;;9.50;99.90;;;;;;4995524;28;20219;-69
2024/02/03 09:04:41;;;;;;;7.00;6.30;;;9.60;99.90;;;;;;4996341;28;20965;-69
2024/02/03 09:07:07;;;;;;;6.37;5.77;;;9.70;99.90;;;;;;4980745;28;20407;-69
2024/02/03 09:09:33;;;;;;;7.20;6.57;;;9.80;99.90;;;;;;4977490;28;20178;-68
2024/02/03 09:11:59;;;;;;;6.80;6.20;;;9.70;99.90;;;;;;4977196;28;20528;-70
2024/02/03 09:14:24;;;;;;;7.53;6.80;;;9.70;99.90;;;;;;4979707;28;20200;-69
2024/02/03 09:16:50;;;;;;;7.10;6.40;;;9.50;99.90;;;;;;4990594;28;20603;-69
2024/02/03 09:19:16;;;;;;;9.20;8.00;;;9.00;99.90;;;;;;4996838;28;20255;-69
2024/02/03 09:21:42;;;;;;;7.60;6.90;;;8.70;99.90;;;;;;4996367;28;20418;-69
2024/02/03 09:24:07;;;;;;;7.33;6.60;;;8.60;99.90;;;;;;4996296;28;20169;-69
2024/02/03 09:26:38;;;;;;;8.87;7.97;;;8.90;99.90;;;;;;4985717;28;20473;-68
2024/02/03 09:29:03;;;;;;;10.53;9.50;;;9.00;99.90;;;;;;4977421;28;20151;-69
2024/02/03 09:31:29;;;;;;;9.27;8.37;;;9.00;99.90;;;;;;4976965;28;20507;-69
2024/02/03 09:33:54;;;;;;;8.60;7.70;;;8.80;99.90;;;;;;4977466;28;20213;-71
2024/02/03 09:36:20;;;;;;;9.63;8.63;;;8.80;99.90;;;;;;4985903;28;20171;-69
2024/02/03 09:38:46;;;;;;;9.13;7.80;;;8.80;99.90;;;;;;4994531;28;20171;-69
2024/02/03 09:41:12;;;;;;;9.87;8.87;;;9.10;99.90;;;;;;4995155;28;20411;-68
2024/02/03 09:43:38;;;;;;;10.00;8.30;;;9.40;99.90;;;;;;4996382;28;20171;-68
2024/02/03 09:46:04;;;;;;;9.97;8.17;;;9.40;99.90;;;;;;4989366;28;20514;-70
2024/02/03 09:48:30;;;;;;;8.00;7.20;;;9.10;99.90;;;;;;4976567;28;20178;-69
2024/02/03 09:50:57;;;;;;;10.10;8.60;;;9.10;99.90;;;;;;4976937;28;20779;-68
2024/02/03 09:53:23;;;;;;;7.90;7.07;;;9.10;99.90;;;;;;4976701;28;20168;-69
2024/02/03 09:55:48;;;;;;;8.90;8.00;;;9.20;99.90;;;;;;4981033;28;20881;-68
2024/02/03 09:58:14;;;;;;;8.10;7.30;;;9.30;99.90;;;;;;4996165;28;20488;-68
2024/02/03 10:00:39;;;;;;;8.87;7.97;;;9.40;99.90;;;;;;4995991;28;20543;-68
2024/02/03 10:03:15;;;;;;;8.50;7.73;;;9.30;99.90;;;;;;4996497;28;20163;-68
2024/02/03 10:05:41;;;;;;;5.53;5.03;;;9.60;99.90;;;;;;4992869;28;20652;-69
2024/02/03 10:08:06;;;;;;;4.67;4.23;;;9.40;99.90;;;;;;4994012;28;20556;-69
2024/02/03 10:10:35;;;;;;;5.10;4.60;;;9.30;99.90;;;;;;4995825;28;20230;-68
2024/02/03 10:13:12;;;;;;;7.93;4.40;;;9.40;99.90;;;;;;4995582;28;20173;-69
2024/02/03 10:15:38;;;;;;;4.93;4.43;;;9.50;99.90;;;;;;4995913;28;20458;-69
2024/02/03 10:18:07;;;;;;;4.70;4.20;;;9.40;99.90;;;;;;4995555;28;20857;-69
2024/02/03 10:20:32;;;;;;;6.30;4.97;;;9.60;99.90;;;;;;4994442;28;20418;-69
2024/02/03 10:22:58;;;;;;;5.00;4.50;;;9.80;99.90;;;;;;4995893;28;20407;-68
2024/02/03 10:25:27;;;;;;;5.93;4.67;;;9.80;99.90;;;;;;4994118;28;20663;-69
2024/02/03 10:28:03;;;;;;;5.80;4.67;;;9.70;99.90;;;;;;4987512;28;20190;-69
2024/02/03 10:30:38;;;;;;;4.80;4.30;;;9.80;99.90;;;;;;4975528;28;20408;-68
2024/02/03 10:33:07;;;;;;;3.97;3.33;;;10.20;99.90;;;;;;4974673;28;20782;-68
2024/02/03 10:35:34;;;;;;;3.43;3.13;;;10.20;99.90;;;;;;4975436;28;20459;-67
2024/02/03 10:38:00;;;;;;;4.07;3.33;;;10.20;99.90;;;;;;4984252;28;20431;-68
2024/02/03 10:40:33;;;;;;;3.80;3.00;;;10.10;99.90;;;;;;4995442;28;20497;-68
2024/02/03 10:43:01;;;;;;;5.10;3.47;;;10.30;99.90;;;;;;4994880;28;20628;-68
2024/02/03 10:45:31;;;;;;;3.90;3.20;;;10.40;99.90;;;;;;4994662;28;20438;-68
2024/02/03 10:48:03;;;;;;;4.63;3.50;;;10.20;99.90;;;;;;4995494;28;20899;-68
2024/02/03 10:50:42;;;;;;;5.30;3.40;;;10.40;99.90;;;;;;4994497;28;20515;-68
2024/02/03 10:53:12;;;;;;;4.83;4.27;;;10.70;99.90;;;;;;4995149;28;20469;-68
2024/02/03 10:55:44;;;;;;;4.27;3.67;;;10.90;99.90;;;;;;4994693;28;20427;-67
2024/02/03 10:58:10;;;;;;;4.47;4.07;;;10.80;99.90;;;;;;4985553;28;20389;-68
2024/02/03 11:00:36;;;;;;;4.37;3.97;;;10.70;99.90;;;;;;4975453;28;20409;-67
2024/02/03 11:03:02;;;;;;;4.43;4.03;;;10.50;99.90;;;;;;4975292;28;20434;-68
2024/02/03 11:05:29;;;;;;;4.47;4.07;;;10.40;99.90;;;;;;4975346;28;20424;-69
2024/02/03 11:08:10;;;;;;;4.67;3.60;;;10.50;99.90;;;;;;4985239;28;20410;-67
2024/02/03 11:10:40;;;;;;;3.73;3.43;;;10.80;99.90;;;;;;4995022;28;20380;-69
2024/02/03 11:13:15;;;;;;;3.30;3.00;;;11.10;99.90;;;;;;4994908;28;20472;-68
2024/02/03 11:15:42;;;;;;;5.07;3.27;;;11.30;99.90;;;;;;4994777;28;20436;-69
2024/02/03 11:18:11;;;;;;;3.30;3.00;;;11.40;99.90;;;;;;4984302;28;20991;-69
2024/02/03 11:20:39;;;;;;;4.77;3.57;;;11.30;99.90;;;;;;4975086;28;20429;-68
2024/02/03 11:23:13;;;;;;;3.43;3.07;;;11.20;99.90;;;;;;4975240;28;20922;-68
2024/02/03 11:25:51;;;;;;;5.47;3.03;;;11.20;99.90;;;;;;4975199;28;20448;-69
2024/02/03 11:28:16;;;;;;;3.77;3.40;;;11.40;99.90;;;;;;4985234;28;20474;-69
2024/02/03 11:30:42;;;;;;;3.40;3.10;;;11.40;99.90;;;;;;4992870;28;20420;-67
2024/02/03 11:33:08;;;;;;;3.40;2.70;;;11.30;99.90;;;;;;4994244;28;20193;-69
2024/02/03 11:35:35;;;;;;;4.90;4.27;;;11.40;99.90;;;;;;4994519;28;20229;-68
2024/02/03 11:38:07;;;;;;;3.37;3.07;;;11.30;99.90;;;;;;4986960;28;20418;-69
2024/02/03 11:40:43;;;;;;;3.50;3.20;;;11.50;99.90;;;;;;4975248;28;20405;-69
2024/02/03 11:43:13;;;;;;;3.47;3.17;;;11.60;99.90;;;;;;4977579;28;20456;-68
2024/02/03 11:45:45;;;;;;;4.33;3.60;;;11.90;99.90;;;;;;4978252;28;20803;-69
2024/02/03 11:48:11;;;;;;;3.20;3.00;;;12.00;99.90;;;;;;4987325;28;20416;-68
2024/02/03 11:50:37;;;;;;;4.33;3.40;;;12.00;99.90;;;;;;4998784;28;20404;-69
2024/02/03 11:53:03;;;;;;;3.60;2.90;;;12.00;99.90;;;;;;4998256;28;20411;-69
2024/02/03 11:55:29;;;;;;;4.60;3.53;;;12.00;99.90;;;;;;4997787;28;20810;-69
2024/02/03 11:57:54;;;;;;;3.43;3.13;;;11.90;99.90;;;;;;4998421;28;20195;-69
2024/02/03 12:00:20;;;;;;;2.67;2.47;;;12.00;99.90;;;;;;4998093;28;20196;-69
2024/02/03 12:02:47;;;;;;;6.23;2.80;;;12.10;99.90;;;;;;4998286;28;20540;-68
2024/02/03 12:05:12;;;;;;;3.07;2.87;;;11.90;99.90;;;;;;4996645;28;20536;-68
2024/02/03 12:07:38;;;;;;;3.83;2.87;;;11.90;99.90;;;;;;4993742;28;20441;-67
2024/02/03 12:10:06;;;;;;;3.77;2.83;;;12.00;99.90;;;;;;4978396;28;20192;-68
2024/02/03 12:12:35;;;;;;;3.03;2.73;;;12.10;99.90;;;;;;4979945;28;20575;-70
2024/02/03 12:15:01;;;;;;;2.10;1.90;;;12.20;99.90;;;;;;4997708;28;20562;-69
2024/02/03 12:17:26;;;;;;;1.80;1.70;;;12.20;99.90;;;;;;4995139;28;20416;-69
2024/02/03 12:19:54;;;;;;;1.97;1.77;;;12.00;99.90;;;;;;4988732;28;20411;-69
2024/02/03 12:22:20;;;;;;;2.27;2.07;;;12.20;99.90;;;;;;4997920;28;20175;-69
2024/02/03 12:24:46;;;;;;;2.13;1.93;;;12.40;99.90;;;;;;4997543;28;20443;-69
2024/02/03 12:27:12;;;;;;;1.63;1.20;;;12.60;99.90;;;;;;4998058;28;20968;-69
2024/02/03 12:29:40;;;;;;;2.67;1.10;;;12.50;99.90;;;;;;4997736;28;20446;-69
2024/02/03 12:32:06;;;;;;;1.40;1.10;;;12.30;99.90;;;;;;4997506;28;20168;-69
2024/02/03 12:34:32;;;;;;;2.50;0.97;;;12.20;99.90;;;;;;4996968;28;20451;-69
2024/02/03 12:36:58;;;;;;;1.80;0.97;;;12.10;99.90;;;;;;4997265;28;20859;-67
2024/02/03 12:39:24;;;;;;;1.00;0.90;;;12.20;99.90;;;;;;4997124;28;20180;-69
2024/02/03 12:41:49;;;;;;;1.17;1.07;;;12.70;99.90;;;;;;4997433;28;20407;-68
2024/02/03 12:44:15;;;;;;;1.33;1.10;;;12.80;99.90;;;;;;4997004;28;20195;-69
2024/02/03 12:46:40;;;;;;;1.33;1.00;;;12.80;99.90;;;;;;4996965;28;20261;-68
2024/02/03 12:49:06;;;;;;;1.10;1.00;;;12.50;99.90;;;;;;4981996;28;20234;-67
2024/02/03 12:51:32;;;;;;;1.30;1.00;;;12.40;99.90;;;;;;4976536;28;20179;-68